Time;durP1;ratioP1;P1;durP2;ratioP2;P2;SDS_P1;SDS_P2;PMS_P1;PMS_P2;Temp;Humidity;BMP_temperature;BMP_pressure;BME280_temperature;BME280_humidity;BME280_pressure;Samples;Min_cycle;Max_cycle;Signal;HPM_P1;HPM_P2
2023/01/28 00:01:13;;;;;;;;;;;4.10;99.90;;;;;;5110496;28;19927;-62
2023/01/28 00:03:39;;;;;;;;;;;4.10;99.90;;;;;;5111153;28;19998;-62
2023/01/28 00:06:06;;;;;;;;;;;4.10;99.90;;;;;;5112131;28;20401;-64
2023/01/28 00:08:35;;;;;;;;;;;4.00;99.90;;;;;;5106090;28;19920;-62
2023/01/28 00:11:01;;;;;;;;;;;4.00;99.90;;;;;;5109116;28;20397;-62
2023/01/28 00:13:27;;;;;;;;;;;3.90;99.90;;;;;;5111413;27;19927;-63
2023/01/28 00:15:57;;;;;;;;;;;4.00;99.90;;;;;;5113948;27;19912;-63
2023/01/28 00:18:24;;;;;;;;;;;3.90;99.90;;;;;;5111251;27;19912;-61
2023/01/28 00:21:06;;;;;;;;;;;3.90;99.90;;;;;;5110992;28;19954;-62
2023/01/28 00:23:33;;;;;;;;;;;3.80;99.90;;;;;;5111316;27;19911;-67
2023/01/28 00:26:03;;;;;;;;;;;3.70;99.90;;;;;;5101143;28;19911;-61
2023/01/28 00:28:28;;;;;;;;;;;3.70;99.90;;;;;;5109431;27;19922;-61
2023/01/28 00:30:53;;;;;;;;;;;3.60;99.90;;;;;;5104466;28;19912;-62
2023/01/28 00:33:19;;;;;;;;;;;3.60;99.90;;;;;;5109039;27;19911;-64
2023/01/28 00:35:45;;;;;;;;;;;3.60;99.90;;;;;;5109896;28;19911;-64
2023/01/28 00:38:11;;;;;;;;;;;3.50;99.90;;;;;;5103963;28;19912;-64
2023/01/28 00:40:36;;;;;;;;;;;3.50;99.90;;;;;;5106877;28;20019;-62
2023/01/28 00:43:02;;;;;;;;;;;3.50;99.90;;;;;;5107943;28;20026;-61
2023/01/28 00:45:27;;;;;;;;;;;3.40;99.90;;;;;;5090262;28;19924;-61
2023/01/28 00:47:53;;;;;;;;;;;3.40;99.90;;;;;;5109126;28;19954;-63
2023/01/28 00:50:20;;;;;;;;;;;3.50;99.90;;;;;;5101380;28;19935;-62
2023/01/28 00:52:48;;;;;;;;;;;3.40;99.90;;;;;;5111432;28;19957;-65
2023/01/28 00:55:14;;;;;;;;;;;3.40;99.90;;;;;;5106616;28;20177;-63
2023/01/28 00:57:39;;;;;;;;;;;3.40;99.90;;;;;;5100724;28;20389;-64
2023/01/28 01:00:05;;;;;;;;;;;3.40;99.90;;;;;;5096479;28;19994;-63
2023/01/28 01:02:30;;;;;;;;;;;3.40;99.90;;;;;;5110802;28;19923;-61
2023/01/28 01:04:59;;;;;;;;;;;3.40;99.90;;;;;;5104423;28;20038;-63
2023/01/28 01:07:40;;;;;;;;;;;3.40;99.90;;;;;;5111296;27;20017;-63
2023/01/28 01:10:16;;;;;;;;;;;3.50;99.90;;;;;;5112072;28;19912;-62
2023/01/28 01:12:41;;;;;;;;;;;3.50;99.90;;;;;;5104674;28;19944;-63
2023/01/28 01:15:09;;;;;;;;;;;3.50;99.90;;;;;;5097156;28;19955;-63
2023/01/28 01:17:39;;;;;;;;;;;3.50;99.90;;;;;;5108629;28;20297;-63
2023/01/28 01:20:05;;;;;;;;;;;3.40;99.90;;;;;;5108605;28;19912;-64
2023/01/28 01:22:34;;;;;;;;;;;3.40;99.90;;;;;;5102716;28;19984;-63
2023/01/28 01:24:59;;;;;;;;;;;3.40;99.90;;;;;;5107577;28;19934;-62
2023/01/28 01:27:25;;;;;;;;;;;3.30;99.90;;;;;;5107992;28;20388;-63
2023/01/28 01:29:50;;;;;;;;;;;3.30;99.90;;;;;;5099812;28;20385;-63
2023/01/28 01:32:17;;;;;;;;;;;3.30;99.90;;;;;;5094803;28;20908;-62
2023/01/28 01:34:43;;;;;;;;;;;3.30;99.90;;;;;;5104324;28;19912;-64
2023/01/28 01:37:09;;;;;;;;;;;3.20;99.90;;;;;;5109565;28;19912;-63
2023/01/28 01:39:35;;;;;;;;;;;3.10;99.90;;;;;;5107974;28;20077;-63
2023/01/28 01:42:00;;;;;;;;;;;3.10;99.90;;;;;;5114355;28;20396;-65
2023/01/28 01:44:44;;;;;;;;;;;3.10;99.90;;;;;;5107073;28;20289;-62
2023/01/28 01:47:10;;;;;;;;;;;3.10;99.90;;;;;;5103415;28;20036;-61
2023/01/28 01:49:35;;;;;;;;;;;3.10;99.90;;;;;;5107148;28;20417;-63
2023/01/28 01:52:05;;;;;;;;;;;3.00;99.90;;;;;;5108351;28;19912;-62
2023/01/28 01:54:31;;;;;;;;;;;3.00;99.90;;;;;;5107949;28;19916;-62
2023/01/28 01:56:57;;;;;;;;;;;2.90;99.90;;;;;;5110379;28;20410;-62
2023/01/28 01:59:30;;;;;;;;;;;2.90;99.90;;;;;;5112563;28;20338;-63
2023/01/28 02:01:58;;;;;;;;;;;2.90;99.90;;;;;;5095679;28;20046;-63
2023/01/28 02:04:32;;;;;;;;;;;2.90;99.90;;;;;;5110459;28;20321;-63
2023/01/28 02:06:59;;;;;;;;;;;2.90;99.90;;;;;;5111010;28;20015;-63
2023/01/28 02:09:26;;;;;;;;;;;2.80;99.90;;;;;;5111570;28;19912;-64
2023/01/28 02:11:54;;;;;;;;;;;2.80;99.90;;;;;;5112916;28;19916;-64
2023/01/28 02:14:20;;;;;;;;;;;2.70;99.90;;;;;;5111392;28;19919;-64
2023/01/28 02:16:46;;;;;;;;;;;2.70;99.90;;;;;;5108065;28;20370;-63
2023/01/28 02:19:11;;;;;;;;;;;2.70;99.90;;;;;;5106319;28;19919;-63
2023/01/28 02:21:49;;;;;;;;;;;2.60;99.90;;;;;;5097487;28;19961;-64
2023/01/28 02:24:20;;;;;;;;;;;2.60;99.90;;;;;;5088531;28;20381;-64
2023/01/28 02:27:04;;;;;;;;;;;2.60;99.90;;;;;;5108394;27;19912;-65
2023/01/28 02:29:30;;;;;;;;;;;2.50;99.90;;;;;;5108631;28;19962;-65
2023/01/28 02:32:10;;;;;;;;;;;2.50;99.90;;;;;;5112043;28;19911;-64
2023/01/28 02:34:41;;;;;;;;;;;2.50;99.90;;;;;;5108918;28;20014;-65
2023/01/28 02:37:13;;;;;;;;;;;2.40;99.90;;;;;;5113130;28;19927;-64
2023/01/28 02:39:41;;;;;;;;;;;2.40;99.90;;;;;;5111897;27;19938;-62
2023/01/28 02:42:09;;;;;;;;;;;2.30;99.90;;;;;;5106307;28;19912;-65
2023/01/28 02:44:34;;;;;;;;;;;2.30;99.90;;;;;;5100044;28;19995;-65
2023/01/28 02:49:49;;;;;;;;;;;2.30;99.90;;;;;;5102556;28;19919;-62
2023/01/28 02:55:15;;;;;;;;;;;2.20;99.90;;;;;;5109718;28;19927;-64
2023/01/28 02:57:45;;;;;;;;;;;2.20;99.90;;;;;;5106998;28;19915;-64
2023/01/28 03:00:17;;;;;;;;;;;2.10;99.90;;;;;;5108953;28;19912;-63
2023/01/28 03:02:49;;;;;;;;;;;2.10;99.90;;;;;;5107672;28;19923;-65
2023/01/28 03:05:19;;;;;;;;;;;2.10;99.90;;;;;;5105305;28;19935;-64
2023/01/28 03:07:45;;;;;;;;;;;2.20;99.90;;;;;;5104414;28;20292;-63
2023/01/28 03:10:15;;;;;;;;;;;2.10;99.90;;;;;;5099603;28;19919;-65
2023/01/28 03:37:38;;;;;;;;;;;2.30;99.90;;;;;;5111320;28;19914;-63
2023/01/28 03:40:05;;;;;;;;;;;2.40;99.90;;;;;;5112380;28;20022;-64
2023/01/28 03:42:31;;;;;;;;;;;2.40;99.90;;;;;;5110089;28;19907;-63
2023/01/28 03:44:57;;;;;;;;;;;2.40;99.90;;;;;;5088988;28;19962;-64
2023/01/28 03:47:24;;;;;;;;;;;2.40;99.90;;;;;;5111457;28;19916;-65
2023/01/28 03:49:50;;;;;;;;;;;2.50;99.90;;;;;;5102789;28;20461;-64
2023/01/28 03:52:17;;;;;;;;;;;2.50;99.90;;;;;;5109433;28;19919;-65
2023/01/28 03:54:43;;;;;;;;;;;2.50;99.90;;;;;;5111861;28;19915;-63
2023/01/28 03:57:09;;;;;;;;;;;2.50;99.90;;;;;;5113560;28;19908;-65
2023/01/28 03:59:34;;;;;;;;;;;2.50;99.90;;;;;;5108287;28;20400;-63
2023/01/28 04:02:04;;;;;;;;;;;2.60;99.90;;;;;;5110735;27;20381;-65
2023/01/28 04:04:31;;;;;;;;;;;2.50;99.90;;;;;;5103728;28;19912;-64
2023/01/28 04:06:57;;;;;;;;;;;2.60;99.90;;;;;;5094571;28;19965;-66
2023/01/28 04:09:22;;;;;;;;;;;2.60;99.90;;;;;;5107974;28;20377;-64
2023/01/28 04:11:49;;;;;;;;;;;2.60;99.90;;;;;;5108897;28;19912;-63
2023/01/28 04:14:14;;;;;;;;;;;2.60;99.90;;;;;;5105709;28;19935;-63
2023/01/28 04:16:41;;;;;;;;;;;2.60;99.90;;;;;;5106349;28;19916;-63
2023/01/28 04:19:07;;;;;;;;;;;2.60;99.90;;;;;;5110414;28;20172;-64
2023/01/28 04:21:33;;;;;;;;;;;2.70;99.90;;;;;;5110336;27;19912;-66
2023/01/28 04:23:58;;;;;;;;;;;2.70;99.90;;;;;;5102261;28;19934;-64
2023/01/28 04:26:24;;;;;;;;;;;2.70;99.90;;;;;;5104562;28;19931;-63
2023/01/28 04:28:49;;;;;;;;;;;2.80;99.90;;;;;;5125581;22;19931;-60
2023/01/28 04:31:14;;;;;;;;;;;2.80;99.90;;;;;;5062579;28;19991;-59
2023/01/28 04:33:40;;;;;;;;;;;2.80;99.90;;;;;;5072794;28;19941;-59
2023/01/28 04:36:05;;;;;;;;;;;2.80;99.90;;;;;;5087752;28;19913;-59
2023/01/28 04:38:31;;;;;;;;;;;2.80;99.90;;;;;;5102000;28;19981;-60
2023/01/28 04:40:56;;;;;;;;;;;2.80;99.90;;;;;;5106515;28;20373;-60
2023/01/28 04:43:22;;;;;;;;;;;2.80;99.90;;;;;;5099026;28;20377;-60
2023/01/28 04:45:48;;;;;;;;;;;2.80;99.90;;;;;;5090064;28;20259;-60
2023/01/28 04:48:14;;;;;;;;;;;2.90;99.90;;;;;;5102046;28;19920;-60
2023/01/28 04:50:39;;;;;;;;;;;2.80;99.90;;;;;;5105912;28;19912;-60
2023/01/28 04:53:05;;;;;;;;;;;2.90;99.90;;;;;;5103506;28;19916;-60
2023/01/28 04:55:30;;;;;;;;;;;2.80;99.90;;;;;;5103829;28;19962;-59
2023/01/28 04:57:56;;;;;;;;;;;2.80;99.90;;;;;;5095820;28;20369;-59
2023/01/28 05:00:21;;;;;;;;;;;2.80;99.90;;;;;;5088804;28;19912;-59
2023/01/28 05:02:47;;;;;;;;;;;2.90;99.90;;;;;;5102212;28;19965;-60
2023/01/28 05:05:12;;;;;;;;;;;2.90;99.90;;;;;;5101806;28;20002;-61
2023/01/28 05:07:38;;;;;;;;;;;2.90;99.90;;;;;;5107194;28;19916;-61
2023/01/28 05:10:03;;;;;;;;;;;3.00;99.90;;;;;;5109434;28;19912;-61
2023/01/28 05:12:31;;;;;;;;;;;3.00;99.90;;;;;;5088785;28;19919;-60
2023/01/28 05:14:59;;;;;;;;;;;2.90;99.90;;;;;;5105315;28;19912;-61
2023/01/28 05:17:25;;;;;;;;;;;2.90;99.90;;;;;;5096836;28;19912;-61
2023/01/28 05:19:50;;;;;;;;;;;3.00;99.90;;;;;;5098596;28;20401;-60
2023/01/28 05:22:16;;;;;;;;;;;3.00;99.90;;;;;;5102083;28;19995;-61
2023/01/28 05:24:41;;;;;;;;;;;2.90;99.90;;;;;;5105646;28;19950;-59
2023/01/28 05:27:07;;;;;;;;;;;3.00;99.90;;;;;;5104159;28;19937;-60
2023/01/28 05:29:32;;;;;;;;;;;3.00;99.90;;;;;;5088438;28;20006;-60
2023/01/28 05:31:58;;;;;;;;;;;3.00;99.90;;;;;;5086982;28;19934;-60
2023/01/28 05:34:23;;;;;;;;;;;3.00;99.90;;;;;;5093266;28;19919;-58
2023/01/28 05:36:49;;;;;;;;;;;3.00;99.90;;;;;;5088760;28;20002;-58
2023/01/28 05:39:14;;;;;;;;;;;2.90;99.90;;;;;;5087389;28;20369;-60
2023/01/28 05:41:40;;;;;;;;;;;2.90;99.90;;;;;;5067361;28;20456;-60
2023/01/28 05:44:05;;;;;;;;;;;2.90;99.90;;;;;;5085342;28;20347;-61
2023/01/28 05:46:31;;;;;;;;;;;2.90;99.90;;;;;;5080577;28;20288;-59
2023/01/28 05:48:56;;;;;;;;;;;2.90;99.90;;;;;;5084644;28;19912;-62
2023/01/28 05:51:22;;;;;;;;;;;2.90;99.90;;;;;;5088407;28;19912;-61
2023/01/28 05:53:47;;;;;;;;;;;2.90;99.90;;;;;;5088786;28;19908;-60
2023/01/28 05:56:12;;;;;;;;;;;2.90;99.90;;;;;;5092339;28;19947;-58
2023/01/28 05:58:38;;;;;;;;;;;3.00;99.90;;;;;;5095674;28;19908;-60
2023/01/28 06:01:03;;;;;;;;;;;3.00;99.90;;;;;;5084037;28;20362;-59
2023/01/28 06:03:29;;;;;;;;;;;3.00;99.90;;;;;;5088934;28;20502;-60
2023/01/28 06:05:54;;;;;;;;;;;3.00;99.90;;;;;;5069639;28;19915;-61
2023/01/28 06:08:20;;;;;;;;;;;3.00;99.90;;;;;;5090661;28;19977;-60
2023/01/28 06:10:45;;;;;;;;;;;3.00;99.90;;;;;;5088035;28;20365;-59
2023/01/28 06:13:11;;;;;;;;;;;2.90;99.90;;;;;;5088723;28;19958;-61
2023/01/28 06:15:36;;;;;;;;;;;2.90;99.90;;;;;;5083769;28;19912;-60
2023/01/28 06:18:02;;;;;;;;;;;2.90;99.90;;;;;;5092627;28;19973;-60
2023/01/28 06:20:27;;;;;;;;;;;2.90;99.90;;;;;;5084466;28;19915;-60
2023/01/28 06:22:53;;;;;;;;;;;2.90;99.90;;;;;;5086243;28;19951;-60
2023/01/28 06:25:18;;;;;;;;;;;2.90;99.90;;;;;;5089547;28;19913;-60
2023/01/28 06:27:45;;;;;;;;;;;2.80;99.90;;;;;;5086871;28;20382;-58
2023/01/28 06:30:10;;;;;;;;;;;2.90;99.90;;;;;;5083868;28;19974;-61
2023/01/28 06:32:36;;;;;;;;;;;2.90;99.90;;;;;;5087350;28;20386;-57
2023/01/28 06:35:01;;;;;;;;;;;2.90;99.90;;;;;;5090539;28;19913;-59
2023/01/28 06:37:27;;;;;;;;;;;2.90;99.90;;;;;;5093920;28;19908;-59
2023/01/28 06:39:52;;;;;;;;;;;2.80;99.90;;;;;;5091730;28;20381;-58
2023/01/28 06:42:18;;;;;;;;;;;2.80;99.90;;;;;;5090880;28;20004;-59
2023/01/28 06:44:43;;;;;;;;;;;2.90;99.90;;;;;;5093609;28;19908;-60
2023/01/28 06:47:09;;;;;;;;;;;2.80;99.90;;;;;;5092620;28;19912;-60
2023/01/28 06:49:36;;;;;;;;;;;2.80;99.90;;;;;;5089244;28;19915;-59
2023/01/28 06:52:01;;;;;;;;;;;2.90;99.90;;;;;;5088152;28;19920;-59
2023/01/28 06:54:27;;;;;;;;;;;2.80;99.90;;;;;;5093311;28;19908;-59
2023/01/28 06:56:52;;;;;;;;;;;2.90;99.90;;;;;;5093686;28;20326;-59
2023/01/28 06:59:17;;;;;;;;;;;2.90;99.90;;;;;;5093236;28;19931;-59
2023/01/28 07:01:43;;;;;;;;;;;2.90;99.90;;;;;;5091785;28;19912;-59
2023/01/28 07:04:08;;;;;;;;;;;2.90;99.90;;;;;;5090879;28;19939;-60
2023/01/28 07:06:34;;;;;;;;;;;2.90;99.90;;;;;;5091759;28;19912;-59
2023/01/28 07:08:59;;;;;;;;;;;2.90;99.90;;;;;;5089228;28;20382;-60
2023/01/28 07:11:25;;;;;;;;;;;2.90;99.90;;;;;;5090152;28;20449;-59
2023/01/28 07:13:50;;;;;;;;;;;2.90;99.90;;;;;;5091531;28;20305;-61
2023/01/28 07:16:16;;;;;;;;;;;2.90;99.90;;;;;;5088361;28;20333;-59
2023/01/28 07:18:41;;;;;;;;;;;3.00;99.90;;;;;;5080850;28;19912;-60
2023/01/28 07:21:07;;;;;;;;;;;2.90;99.90;;;;;;5089668;28;19912;-60
2023/01/28 07:23:32;;;;;;;;;;;2.90;99.90;;;;;;5094334;28;19912;-60
2023/01/28 07:26:01;;;;;;;;;;;2.90;99.90;;;;;;5087202;28;19927;-61
2023/01/28 07:28:27;;;;;;;;;;;2.90;99.90;;;;;;5103017;28;20266;-61
2023/01/28 07:30:52;;;;;;;;;;;2.90;99.90;;;;;;5109301;28;20053;-60
2023/01/28 07:33:17;;;;;;;;;;;2.80;99.90;;;;;;5112680;28;20389;-60
2023/01/28 07:35:43;;;;;;;;;;;2.80;99.90;;;;;;5109470;27;19908;-61
2023/01/28 07:38:09;;;;;;;;;;;2.80;99.90;;;;;;5111319;28;19963;-60
2023/01/28 07:40:34;;;;;;;;;;;2.80;99.90;;;;;;5112651;28;19907;-60
2023/01/28 07:43:00;;;;;;;;;;;2.80;99.90;;;;;;5110480;28;19912;-61
2023/01/28 07:45:27;;;;;;;;;;;2.70;99.90;;;;;;5109929;28;19961;-60
2023/01/28 07:47:54;;;;;;;;;;;2.80;99.90;;;;;;5108280;28;19965;-61
2023/01/28 07:50:19;;;;;;;;;;;2.80;99.90;;;;;;5114840;27;19908;-60
2023/01/28 07:52:45;;;;;;;;;;;2.80;99.90;;;;;;5090950;28;19919;-61
2023/01/28 07:55:14;;;;;;;;;;;2.80;99.90;;;;;;5111226;28;20015;-58
2023/01/28 07:57:55;;;;;;;;;;;2.90;99.90;;;;;;5107813;28;20289;-61
2023/01/28 08:00:22;;;;;;;;;;;2.80;99.90;;;;;;5105341;28;19947;-60
2023/01/28 08:02:48;;;;;;;;;;;2.80;99.90;;;;;;5112868;28;19911;-59
2023/01/28 08:05:17;;;;;;;;;;;2.90;99.90;;;;;;5106760;27;20389;-58
2023/01/28 08:07:43;;;;;;;;;;;2.90;99.90;;;;;;5107184;28;20421;-61
2023/01/28 08:10:09;;;;;;;;;;;2.90;99.90;;;;;;5110018;28;19999;-60
2023/01/28 08:12:35;;;;;;;;;;;2.90;99.90;;;;;;5094110;28;20798;-61
2023/01/28 08:15:00;;;;;;;;;;;2.90;99.90;;;;;;5105699;28;19908;-60
2023/01/28 08:17:26;;;;;;;;;;;2.90;99.90;;;;;;5097682;28;19920;-60
2023/01/28 08:19:51;;;;;;;;;;;3.00;99.90;;;;;;5100862;28;20416;-60
2023/01/28 08:22:17;;;;;;;;;;;3.00;99.90;;;;;;5105105;28;19916;-60
2023/01/28 08:24:42;;;;;;;;;;;3.00;99.90;;;;;;5112038;28;19937;-60
2023/01/28 08:27:08;;;;;;;;;;;2.90;99.90;;;;;;5101155;28;20017;-60
2023/01/28 08:29:33;;;;;;;;;;;2.90;99.90;;;;;;5090996;28;19911;-60
2023/01/28 08:31:59;;;;;;;;;;;2.90;99.90;;;;;;5085891;28;19919;-60
2023/01/28 08:34:24;;;;;;;;;;;2.90;99.90;;;;;;5098029;28;19912;-60
2023/01/28 08:36:50;;;;;;;;;;;2.80;99.90;;;;;;5096180;28;19931;-62
2023/01/28 08:39:15;;;;;;;;;;;2.90;99.90;;;;;;5092374;28;19919;-61
2023/01/28 08:41:41;;;;;;;;;;;2.90;99.90;;;;;;5092939;28;19951;-61
2023/01/28 08:44:06;;;;;;;;;;;2.80;99.90;;;;;;5070643;28;20401;-60
2023/01/28 08:46:32;;;;;;;;;;;2.90;99.90;;;;;;5082835;28;19908;-60
2023/01/28 08:48:57;;;;;;;;;;;2.90;99.90;;;;;;5086263;28;19916;-60
2023/01/28 08:51:22;;;;;;;;;;;3.00;99.90;;;;;;5092828;28;19981;-61
2023/01/28 08:53:48;;;;;;;;;;;3.00;99.90;;;;;;5086270;28;19912;-60
2023/01/28 08:56:14;;;;;;;;;;;2.90;99.90;;;;;;5085288;28;19908;-60
2023/01/28 08:58:40;;;;;;;;;;;2.90;99.90;;;;;;5091200;28;19919;-59
2023/01/28 09:01:05;;;;;;;;;;;2.90;99.90;;;;;;5094515;28;19956;-59
2023/01/28 09:03:31;;;;;;;;;;;3.00;99.90;;;;;;5087476;28;19908;-57
2023/01/28 09:06:01;;;;;;;;;;;3.00;99.90;;;;;;5087607;28;19915;-61
2023/01/28 09:08:26;;;;;;;;;;;3.00;99.90;;;;;;5090640;28;19916;-55
2023/01/28 09:10:55;;;;;;;;;;;3.10;99.90;;;;;;5090710;28;19916;-58
2023/01/28 09:13:21;;;;;;;;;;;2.90;99.90;;;;;;5093335;28;19908;-60
2023/01/28 09:15:46;;;;;;;;;;;2.90;99.90;;;;;;5092819;28;20063;-59
2023/01/28 09:18:11;;;;;;;;;;;2.90;99.90;;;;;;5094489;28;19915;-61
2023/01/28 09:20:37;;;;;;;;;;;2.90;99.90;;;;;;5093046;28;20331;-59
2023/01/28 09:23:03;;;;;;;;;;;2.90;99.90;;;;;;5086270;28;19931;-59
2023/01/28 09:25:28;;;;;;;;;;;2.90;99.90;;;;;;5096440;28;19920;-57
2023/01/28 09:27:54;;;;;;;;;;;3.00;99.90;;;;;;5092794;28;19919;-57
2023/01/28 09:30:19;;;;;;;;;;;3.00;99.90;;;;;;5098057;28;20383;-58
2023/01/28 09:32:48;;;;;;;;;;;3.00;99.90;;;;;;5089280;28;20285;-54
2023/01/28 09:35:14;;;;;;;;;;;3.00;99.90;;;;;;5088529;28;19923;-56
2023/01/28 09:37:39;;;;;;;;;;;2.90;99.90;;;;;;5093978;28;19926;-58
2023/01/28 09:40:05;;;;;;;;;;;2.80;99.90;;;;;;5091331;28;19923;-59
2023/01/28 09:42:48;;;;;;;;;;;2.80;99.90;;;;;;5091255;28;19912;-60
2023/01/28 09:45:16;;;;;;;;;;;2.90;99.90;;;;;;5080598;28;19916;-60
2023/01/28 09:47:47;;;;;;;;;;;2.90;99.90;;;;;;5092832;28;19916;-60
2023/01/28 09:50:16;;;;;;;;;;;3.00;99.90;;;;;;5090997;28;19969;-60
2023/01/28 09:52:41;;;;;;;;;;;2.90;99.90;;;;;;5087555;28;19912;-60
2023/01/28 09:55:18;;;;;;;;;;;2.80;99.90;;;;;;5095076;28;20305;-60
2023/01/28 09:57:49;;;;;;;;;;;2.80;99.90;;;;;;5096095;28;19916;-57
2023/01/28 10:00:17;;;;;;;;;;;2.80;99.90;;;;;;5089838;28;19946;-59
2023/01/28 10:02:51;;;;;;;;;;;2.80;99.90;;;;;;5085321;28;19919;-60
2023/01/28 10:05:20;;;;;;;;;;;2.70;99.90;;;;;;5078333;28;20003;-59
2023/01/28 10:07:45;;;;;;;;;;;2.80;99.90;;;;;;5092204;28;19924;-59
2023/01/28 10:10:10;;;;;;;;;;;2.80;99.90;;;;;;5093932;28;19934;-58
2023/01/28 10:12:39;;;;;;;;;;;2.80;99.90;;;;;;5091858;28;21736;-59
2023/01/28 10:15:07;;;;;;;;;;;2.80;99.90;;;;;;5084334;28;19930;-59
2023/01/28 10:17:38;;;;;;;;;;;2.70;99.90;;;;;;5081900;28;19974;-60
2023/01/28 10:20:14;;;;;;;;;;;2.70;99.90;;;;;;5083557;28;19919;-59
2023/01/28 10:22:45;;;;;;;;;;;2.80;99.90;;;;;;5092168;28;20370;-60
2023/01/28 10:25:30;;;;;;;;;;;2.70;99.90;;;;;;5074842;28;19920;-60
2023/01/28 10:30:38;;;;;;;;;;;2.50;99.90;;;;;;5064285;28;19939;-62
2023/01/28 10:33:09;;;;;;;;;;;2.40;99.90;;;;;;5071807;28;19920;-62
2023/01/28 10:35:37;;;;;;;;;;;2.40;99.90;;;;;;5064658;28;19912;-60
2023/01/28 10:38:06;;;;;;;;;;;2.40;99.90;;;;;;5072445;28;19916;-63
2023/01/28 10:40:31;;;;;;;;;;;2.40;99.90;;;;;;5073964;28;19916;-63
2023/01/28 10:42:57;;;;;;;;;;;2.40;99.90;;;;;;5086496;28;20373;-61
2023/01/28 10:45:25;;;;;;;;;;;2.40;99.90;;;;;;5073465;28;19919;-62
2023/01/28 10:47:53;;;;;;;;;;;2.40;99.90;;;;;;5090029;28;19986;-62
2023/01/28 10:50:23;;;;;;;;;;;2.50;99.90;;;;;;5089302;28;20003;-61
2023/01/28 10:52:52;;;;;;;;;;;2.50;99.90;;;;;;5085943;28;19998;-61
2023/01/28 10:55:17;;;;;;;;;;;2.50;99.90;;;;;;5088885;28;19916;-62
2023/01/28 10:57:43;;;;;;;;;;;2.50;99.90;;;;;;5090307;28;19974;-60
2023/01/28 11:00:21;;;;;;;;;;;2.50;99.90;;;;;;5088704;28;19920;-62
2023/01/28 11:02:48;;;;;;;;;;;2.60;99.90;;;;;;5083543;28;19958;-63
2023/01/28 11:05:15;;;;;;;;;;;2.50;99.90;;;;;;5086718;28;20430;-64
2023/01/28 11:07:40;;;;;;;;;;;2.50;99.90;;;;;;5082198;28;19924;-62
2023/01/28 11:10:41;;;;;;;;;;;2.50;99.90;;;;;;5082512;28;20661;-62
2023/01/28 11:13:20;;;;;;;;;;;2.60;99.90;;;;;;4998031;28;19925;-63
2023/01/28 11:15:51;;;;;;;;;;;2.60;99.90;;;;;;5070689;28;19948;-63
2023/01/28 11:18:19;;;;;;;;;;;2.50;99.90;;;;;;5078971;28;20512;-61
2023/01/28 11:20:49;;;;;;;;;;;2.40;99.90;;;;;;5084613;28;19973;-61
2023/01/28 11:23:20;;;;;;;;;;;2.40;99.90;;;;;;5079490;28;19974;-63
2023/01/28 11:25:46;;;;;;;;;;;2.50;99.90;;;;;;5083032;28;19912;-64
2023/01/28 11:28:17;;;;;;;;;;;2.50;99.90;;;;;;5089254;28;20370;-63
2023/01/28 11:30:42;;;;;;;;;;;2.50;99.90;;;;;;5064306;28;19924;-63
2023/01/28 11:33:21;;;;;;;;;;;2.60;99.90;;;;;;5078227;28;19924;-63
2023/01/28 11:35:53;;;;;;;;;;;2.70;99.90;;;;;;5068702;28;20275;-63
2023/01/28 11:38:20;;;;;;;;;;;2.80;99.90;;;;;;5080153;28;19912;-63
2023/01/28 11:40:53;;;;;;;;;;;2.80;99.90;;;;;;5081222;28;19951;-62
2023/01/28 11:43:26;;;;;;;;;;;2.80;99.90;;;;;;5076240;28;19912;-63
2023/01/28 11:46:10;;;;;;;;;;;2.80;99.90;;;;;;5076817;28;19983;-62
2023/01/28 11:48:54;;;;;;;;;;;2.80;99.90;;;;;;5080419;28;20003;-63
2023/01/28 11:51:35;;;;;;;;;;;2.80;99.90;;;;;;5085078;28;19919;-61
2023/01/28 11:54:00;;;;;;;;;;;2.60;99.90;;;;;;5080792;28;19982;-61
2023/01/28 11:56:26;;;;;;;;;;;2.60;99.90;;;;;;5080863;28;20378;-63
2023/01/28 11:58:57;;;;;;;;;;;2.60;99.90;;;;;;5089013;28;19965;-63
2023/01/28 12:01:32;;;;;;;;;;;2.60;99.90;;;;;;5084609;28;19964;-61
2023/01/28 12:04:15;;;;;;;;;;;2.60;99.90;;;;;;5080210;28;19913;-62
2023/01/28 12:06:47;;;;;;;;;;;2.60;99.90;;;;;;5068677;28;19963;-61
2023/01/28 12:09:18;;;;;;;;;;;2.60;99.90;;;;;;5088456;28;19916;-61
2023/01/28 12:12:10;;;;;;;;;;;2.70;99.90;;;;;;5086403;28;19912;-62
2023/01/28 12:14:44;;;;;;;;;;;2.70;99.90;;;;;;5089186;28;20304;-62
2023/01/28 12:17:15;;;;;;;;;;;2.70;99.90;;;;;;5083773;28;19916;-62
2023/01/28 12:19:49;;;;;;;;;;;2.70;99.90;;;;;;5085852;28;19916;-61
2023/01/28 12:22:20;;;;;;;;;;;2.80;99.90;;;;;;5083356;28;19999;-62
2023/01/28 12:25:05;;;;;;;;;;;2.80;99.90;;;;;;5083183;28;19916;-63
2023/01/28 12:27:42;;;;;;;;;;;2.80;99.90;;;;;;5087178;28;19955;-63
2023/01/28 12:30:27;;;;;;;;;;;2.80;99.90;;;;;;5084229;28;19923;-61
2023/01/28 12:32:53;;;;;;;;;;;2.70;99.90;;;;;;5084400;28;19943;-62
2023/01/28 12:35:37;;;;;;;;;;;2.60;99.90;;;;;;5072200;28;20001;-61
2023/01/28 12:38:11;;;;;;;;;;;2.60;99.90;;;;;;5081193;28;19916;-63
2023/01/28 12:40:43;;;;;;;;;;;2.70;99.90;;;;;;5075757;28;19924;-63
2023/01/28 12:43:21;;;;;;;;;;;2.70;99.90;;;;;;5083681;28;19919;-63
2023/01/28 12:45:53;;;;;;;;;;;2.70;99.90;;;;;;5074360;28;19924;-63
2023/01/28 12:48:51;;;;;;;;;;;2.60;99.90;;;;;;5080477;28;19961;-63
2023/01/28 12:51:20;;;;;;;;;;;2.60;99.90;;;;;;5042064;28;19916;-62
2023/01/28 12:53:51;;;;;;;;;;;2.60;99.90;;;;;;5080745;28;20443;-63
2023/01/28 12:56:18;;;;;;;;;;;2.60;99.90;;;;;;5080788;28;19920;-62
2023/01/28 12:59:01;;;;;;;;;;;2.70;99.90;;;;;;5074744;28;20007;-62
2023/01/28 13:01:28;;;;;;;;;;;2.70;99.90;;;;;;5078421;28;19913;-63
2023/01/28 13:04:00;;;;;;;;;;;2.60;99.90;;;;;;5076021;28;19920;-61
2023/01/28 13:06:25;;;;;;;;;;;2.60;99.90;;;;;;5078124;28;19912;-61
2023/01/28 13:08:54;;;;;;;;;;;2.60;99.90;;;;;;5081276;28;19924;-61
2023/01/28 13:11:19;;;;;;;;;;;2.60;99.90;;;;;;5083055;28;19927;-63
2023/01/28 13:13:45;;;;;;;;;;;2.60;99.90;;;;;;5077882;28;19911;-62
2023/01/28 13:16:11;;;;;;;;;;;2.70;99.90;;;;;;5076821;28;20383;-63
2023/01/28 13:18:40;;;;;;;;;;;2.80;99.90;;;;;;5080247;28;20339;-63
2023/01/28 13:21:07;;;;;;;;;;;3.00;99.90;;;;;;5072994;28;19919;-63
2023/01/28 13:23:38;;;;;;;;;;;3.10;99.90;;;;;;5056704;28;20263;-61
2023/01/28 13:26:19;;;;;;;;;;;3.10;99.90;;;;;;5082443;28;19912;-62
2023/01/28 13:28:48;;;;;;;;;;;3.20;99.90;;;;;;5084522;28;19915;-62
2023/01/28 13:31:18;;;;;;;;;;;3.30;99.90;;;;;;5080920;28;20398;-63
2023/01/28 13:33:52;;;;;;;;;;;3.30;99.90;;;;;;5082039;28;19923;-62
2023/01/28 13:36:29;;;;;;;;;;;3.40;99.90;;;;;;5083352;28;19986;-63
2023/01/28 13:39:16;;;;;;;;;;;3.30;99.90;;;;;;5082490;28;20011;-63
2023/01/28 13:41:49;;;;;;;;;;;3.60;99.90;;;;;;5080661;28;19912;-63
2023/01/28 13:44:17;;;;;;;;;;;3.70;99.90;;;;;;5082631;28;19916;-63
2023/01/28 13:46:43;;;;;;;;;;;3.70;99.90;;;;;;5085142;28;19924;-63
2023/01/28 13:49:13;;;;;;;;;;;3.80;99.90;;;;;;5085455;28;19916;-64
2023/01/28 13:51:43;;;;;;;;;;;3.90;99.90;;;;;;5085292;28;19912;-61
2023/01/28 13:54:14;;;;;;;;;;;4.00;99.90;;;;;;5084284;28;19912;-64
2023/01/28 13:56:48;;;;;;;;;;;3.90;99.90;;;;;;5084282;28;20385;-63
2023/01/28 13:59:22;;;;;;;;;;;3.90;99.90;;;;;;5086467;28;19912;-62
2023/01/28 14:01:54;;;;;;;;;;;3.60;99.90;;;;;;5081093;28;19912;-62
2023/01/28 14:04:34;;;;;;;;;;;3.40;99.90;;;;;;5082980;28;19920;-64
2023/01/28 14:07:18;;;;;;;;;;;3.40;99.90;;;;;;5087553;28;19912;-62
2023/01/28 14:09:43;;;;;;;;;;;3.40;99.90;;;;;;5087278;28;19951;-62
2023/01/28 14:12:28;;;;;;;;;;;3.40;99.90;;;;;;5083064;28;20496;-62
2023/01/28 14:15:06;;;;;;;;;;;3.40;99.90;;;;;;5086458;28;19931;-62
2023/01/28 14:17:44;;;;;;;;;;;3.30;99.90;;;;;;5083795;28;19923;-63
2023/01/28 14:20:22;;;;;;;;;;;3.20;99.90;;;;;;5083040;28;21915;-62
2023/01/28 14:22:48;;;;;;;;;;;2.90;99.90;;;;;;5090968;28;20003;-63
2023/01/28 14:25:16;;;;;;;;;;;3.10;99.90;;;;;;5086275;28;20393;-63
2023/01/28 14:27:44;;;;;;;;;;;3.10;99.90;;;;;;5084325;28;20003;-62
2023/01/28 14:30:26;;;;;;;;;;;3.10;99.90;;;;;;5090644;28;19923;-63
2023/01/28 14:32:53;;;;;;;;;;;3.00;99.90;;;;;;5072181;28;20292;-61
2023/01/28 14:35:21;;;;;;;;;;;3.00;99.90;;;;;;5089807;28;19967;-61
2023/01/28 14:37:46;;;;;;;;;;;2.90;99.90;;;;;;5089440;28;19920;-62
2023/01/28 14:40:13;;;;;;;;;;;2.90;99.90;;;;;;5090634;28;20305;-64
2023/01/28 14:42:41;;;;;;;;;;;2.90;99.90;;;;;;5085697;28;19923;-64
2023/01/28 14:45:06;;;;;;;;;;;2.90;99.90;;;;;;5083442;28;19995;-64
2023/01/28 14:47:44;;;;;;;;;;;2.90;99.90;;;;;;5093980;28;19958;-64
2023/01/28 14:50:28;;;;;;;;;;;2.90;99.90;;;;;;5087789;28;19913;-64
2023/01/28 14:53:12;;;;;;;;;;;2.80;99.90;;;;;;5090359;28;20446;-64
2023/01/28 14:55:43;;;;;;;;;;;2.90;99.90;;;;;;5092846;28;19953;-63
2023/01/28 14:58:14;;;;;;;;;;;2.80;99.90;;;;;;5089055;28;20006;-64
2023/01/28 15:00:40;;;;;;;;;;;2.80;99.90;;;;;;5086069;28;19912;-64
2023/01/28 15:03:16;;;;;;;;;;;2.80;99.90;;;;;;5084420;28;20293;-64
2023/01/28 15:05:41;;;;;;;;;;;2.70;99.90;;;;;;5087716;28;19912;-64
2023/01/28 15:08:06;;;;;;;;;;;2.60;99.90;;;;;;5091569;28;19919;-62
2023/01/28 15:10:35;;;;;;;;;;;2.60;99.90;;;;;;5077027;28;19958;-64
2023/01/28 15:13:08;;;;;;;;;;;2.60;99.90;;;;;;5083725;28;19921;-63